Time;durP1;ratioP1;P1;durP2;ratioP2;P2;SDS_P1;SDS_P2;PMS_P1;PMS_P2;Temp;Humidity;BMP_temperature;BMP_pressure;BME280_temperature;BME280_humidity;BME280_pressure;Samples;Min_cycle;Max_cycle;Signal;HPM_P1;HPM_P2
2021/10/23 00:02:20;;;;;;;10.40;5.38;;;8.50;94.20;;;;;;5017618;28;20026;-82
2021/10/23 00:04:45;;;;;;;10.10;5.35;;;8.40;94.10;;;;;;5007336;28;20041;-82
2021/10/23 00:07:11;;;;;;;8.70;5.72;;;8.40;94.10;;;;;;5028160;28;20075;-81
2021/10/23 00:09:37;;;;;;;14.30;6.13;;;8.40;94.10;;;;;;5029313;28;20086;-82
2021/10/23 00:12:03;;;;;;;15.35;7.13;;;8.40;94.10;;;;;;5045732;28;20041;-82
2021/10/23 00:14:29;;;;;;;11.55;5.95;;;8.40;94.10;;;;;;5023709;28;20029;-82
2021/10/23 00:16:54;;;;;;;12.85;6.60;;;8.30;94.10;;;;;;5030021;28;20463;-82
2021/10/23 00:19:20;;;;;;;10.60;6.90;;;8.30;94.10;;;;;;5025857;28;20034;-82
2021/10/23 00:21:46;;;;;;;12.10;6.55;;;8.30;94.10;;;;;;5029451;28;20037;-82
2021/10/23 00:24:11;;;;;;;11.63;6.88;;;8.30;94.20;;;;;;5027209;28;20036;-81
2021/10/23 00:26:37;;;;;;;10.65;6.63;;;8.30;94.20;;;;;;5025083;28;20078;-82
2021/10/23 00:29:03;;;;;;;16.38;6.65;;;8.30;94.20;;;;;;5043815;27;20027;-82
2021/10/23 00:31:28;;;;;;;11.43;7.40;;;8.30;94.20;;;;;;5007408;28;20531;-82
2021/10/23 00:33:54;;;;;;;18.17;8.95;;;8.30;94.30;;;;;;5000009;28;20037;-82
2021/10/23 00:36:19;;;;;;;11.40;7.18;;;8.30;94.30;;;;;;5011626;28;20026;-82
2021/10/23 00:38:45;;;;;;;23.08;10.23;;;8.30;94.30;;;;;;5022804;28;20044;-82
2021/10/23 00:41:11;;;;;;;24.40;9.98;;;8.40;94.40;;;;;;5030731;28;20026;-82
2021/10/23 00:43:38;;;;;;;19.30;10.63;;;8.40;94.40;;;;;;5056712;28;20036;-82
2021/10/23 00:46:04;;;;;;;18.75;11.52;;;8.40;94.40;;;;;;5084794;28;21613;-82
2021/10/23 00:48:30;;;;;;;17.52;10.65;;;8.40;94.40;;;;;;5085813;28;20031;-81
2021/10/23 00:50:56;;;;;;;23.05;11.77;;;8.50;94.50;;;;;;5085601;28;20052;-82
2021/10/23 00:53:22;;;;;;;17.60;10.98;;;8.50;94.60;;;;;;5082089;28;20105;-82
2021/10/23 00:55:48;;;;;;;17.55;11.85;;;8.50;94.80;;;;;;5078018;28;20035;-82
2021/10/23 00:58:14;;;;;;;13.73;10.15;;;8.60;94.60;;;;;;5120539;28;20031;-82
2021/10/23 01:00:41;;;;;;;16.60;10.32;;;8.60;94.70;;;;;;5086514;28;20034;-82
2021/10/23 01:03:06;;;;;;;25.25;14.68;;;8.70;94.70;;;;;;5081160;28;20412;-83
2021/10/23 01:05:33;;;;;;;21.70;13.98;;;8.70;94.70;;;;;;5080706;28;20028;-82
2021/10/23 01:07:59;;;;;;;26.13;15.65;;;8.80;94.70;;;;;;5087255;28;20222;-82
2021/10/23 01:10:24;;;;;;;33.75;15.15;;;8.80;94.70;;;;;;5084070;28;20028;-83
2021/10/23 01:12:50;;;;;;;23.65;14.10;;;8.80;94.70;;;;;;5080579;28;20047;-82
2021/10/23 01:15:19;;;;;;;26.25;13.57;;;8.80;94.80;;;;;;5087488;28;20127;-81
2021/10/23 01:17:45;;;;;;;22.20;12.85;;;8.90;94.80;;;;;;5126749;27;20586;-82
2021/10/23 01:20:11;;;;;;;22.10;13.88;;;8.90;94.80;;;;;;5094992;28;20032;-82
2021/10/23 01:22:36;;;;;;;21.25;13.05;;;8.90;94.90;;;;;;5093152;28;20031;-82
2021/10/23 01:25:03;;;;;;;19.95;11.88;;;8.90;94.90;;;;;;5094846;28;20028;-81
2021/10/23 01:27:29;;;;;;;19.27;13.50;;;8.90;94.90;;;;;;5091984;28;20039;-80
2021/10/23 01:29:54;;;;;;;24.02;14.07;;;8.90;94.90;;;;;;5094404;28;20480;-81
2021/10/23 01:32:20;;;;;;;20.48;12.90;;;9.00;95.00;;;;;;5085090;28;20025;-82
2021/10/23 01:34:46;;;;;;;21.90;13.40;;;9.00;95.00;;;;;;5087991;28;20111;-81
2021/10/23 01:37:14;;;;;;;22.20;15.07;;;9.00;95.00;;;;;;5118557;27;20025;-82
2021/10/23 01:39:39;;;;;;;25.88;15.05;;;9.10;95.00;;;;;;5093570;28;20032;-82
2021/10/23 01:42:05;;;;;;;18.67;13.30;;;9.10;95.00;;;;;;5092950;28;20396;-82
2021/10/23 01:44:34;;;;;;;21.23;13.98;;;9.10;95.00;;;;;;5085757;28;20035;-82
2021/10/23 01:47:01;;;;;;;22.77;15.57;;;9.10;95.10;;;;;;5102186;28;20473;-82
2021/10/23 01:49:26;;;;;;;44.95;19.95;;;9.10;95.10;;;;;;5095049;28;20738;-82
2021/10/23 01:51:52;;;;;;;23.08;14.68;;;9.10;95.10;;;;;;5071171;28;20074;-82
2021/10/23 01:54:18;;;;;;;21.45;12.30;;;9.00;95.10;;;;;;5090964;28;20028;-82
2021/10/23 01:56:44;;;;;;;23.08;14.70;;;9.00;95.00;;;;;;5088014;28;20472;-82
2021/10/23 01:59:10;;;;;;;29.75;15.55;;;9.00;95.00;;;;;;5088765;28;20032;-82
2021/10/23 02:01:36;;;;;;;21.23;14.50;;;8.90;95.00;;;;;;5075008;28;20107;-82
2021/10/23 02:04:03;;;;;;;26.25;15.98;;;8.90;95.00;;;;;;5084889;28;20118;-82
2021/10/23 02:06:28;;;;;;;25.08;16.48;;;8.90;95.00;;;;;;5092073;28;20025;-82
2021/10/23 02:08:54;;;;;;;22.20;14.55;;;8.90;95.00;;;;;;5093746;28;20036;-82
2021/10/23 02:11:20;;;;;;;24.65;15.73;;;8.80;95.10;;;;;;5092237;28;20368;-82
2021/10/23 02:13:46;;;;;;;24.45;16.38;;;8.90;95.10;;;;;;5087555;28;20138;-81
2021/10/23 02:16:12;;;;;;;26.33;16.60;;;8.80;95.10;;;;;;5094170;28;20031;-82
2021/10/23 02:18:38;;;;;;;25.75;16.30;;;8.80;95.10;;;;;;5085866;28;20427;-81
2021/10/23 02:21:09;;;;;;;24.33;16.38;;;8.90;95.40;;;;;;5086426;28;20054;-82
2021/10/23 02:23:35;;;;;;;33.15;17.20;;;8.90;95.10;;;;;;5093600;28;20028;-82
2021/10/23 02:26:02;;;;;;;25.02;15.75;;;8.90;95.10;;;;;;5090933;28;20024;-82
2021/10/23 02:28:27;;;;;;;31.55;18.20;;;8.90;95.10;;;;;;5091684;28;20020;-82
2021/10/23 02:30:54;;;;;;;23.63;17.48;;;8.90;95.10;;;;;;5093802;28;20050;-82
2021/10/23 02:33:19;;;;;;;27.65;17.58;;;8.90;95.10;;;;;;5085001;28;20028;-82
2021/10/23 02:35:45;;;;;;;26.55;16.05;;;8.90;95.10;;;;;;5094780;28;20043;-82
2021/10/23 02:38:11;;;;;;;26.17;15.70;;;8.90;95.10;;;;;;5083513;28;20036;-82
2021/10/23 02:40:38;;;;;;;25.48;16.00;;;8.90;95.10;;;;;;5081895;28;20039;-81
2021/10/23 02:43:04;;;;;;;32.78;16.70;;;8.80;95.10;;;;;;5061572;28;20566;-82
2021/10/23 02:45:30;;;;;;;22.33;15.43;;;8.80;95.10;;;;;;5028954;27;20032;-82
2021/10/23 02:47:56;;;;;;;22.50;15.02;;;8.80;95.20;;;;;;5013857;28;20070;-82
2021/10/23 02:50:22;;;;;;;30.17;16.98;;;8.80;95.20;;;;;;5009346;28;20120;-82
2021/10/23 02:52:48;;;;;;;23.38;14.32;;;8.80;95.20;;;;;;5022394;27;20038;-82
2021/10/23 02:55:14;;;;;;;22.88;13.05;;;8.70;95.20;;;;;;5029793;28;20037;-82
2021/10/23 02:57:39;;;;;;;26.92;16.55;;;8.70;95.20;;;;;;5029553;28;20432;-82
2021/10/23 03:00:06;;;;;;;24.13;15.45;;;8.70;95.20;;;;;;5014929;28;20025;-81
2021/10/23 03:02:33;;;;;;;25.40;15.80;;;8.70;95.20;;;;;;5012262;27;20427;-82
2021/10/23 03:05:02;;;;;;;23.48;15.73;;;8.60;95.20;;;;;;5035455;27;20120;-82
2021/10/23 03:07:28;;;;;;;26.55;16.35;;;8.60;95.20;;;;;;5005520;28;20170;-82
2021/10/23 03:09:54;;;;;;;31.25;17.50;;;8.60;95.20;;;;;;5006680;28;20047;-82
2021/10/23 03:12:20;;;;;;;21.27;14.43;;;8.60;95.10;;;;;;5008722;27;20026;-82
2021/10/23 03:14:45;;;;;;;23.35;15.32;;;8.60;95.20;;;;;;5026551;28;20150;-82
2021/10/23 03:17:11;;;;;;;23.02;14.77;;;8.60;95.20;;;;;;4990601;27;20470;-82
2021/10/23 03:19:36;;;;;;;22.83;14.95;;;8.50;95.20;;;;;;5004710;28;20105;-82
2021/10/23 03:22:02;;;;;;;20.38;14.25;;;8.50;95.20;;;;;;5031644;27;20374;-81
2021/10/23 03:24:28;;;;;;;24.15;15.57;;;8.50;95.20;;;;;;5027496;28;20041;-82
2021/10/23 03:26:54;;;;;;;22.73;15.00;;;8.50;95.20;;;;;;5070169;27;20441;-82
2021/10/23 03:29:19;;;;;;;22.73;14.35;;;8.50;95.10;;;;;;5030687;28;20077;-82
2021/10/23 03:31:45;;;;;;;23.05;14.63;;;8.40;95.10;;;;;;5002398;28;20018;-82
2021/10/23 03:34:10;;;;;;;21.35;14.88;;;8.40;95.10;;;;;;5032499;28;20485;-82
2021/10/23 03:36:36;;;;;;;23.38;14.27;;;8.40;95.00;;;;;;5017486;27;20027;-82
2021/10/23 03:39:03;;;;;;;25.13;15.30;;;8.40;95.10;;;;;;5086053;28;21077;-82
2021/10/23 03:41:28;;;;;;;26.20;16.05;;;8.40;95.10;;;;;;5049143;27;20053;-82
2021/10/23 03:43:54;;;;;;;24.08;15.65;;;8.30;95.10;;;;;;5000255;28;20096;-82
2021/10/23 03:46:19;;;;;;;20.27;13.10;;;8.30;95.10;;;;;;5059925;27;20070;-82
2021/10/23 03:48:45;;;;;;;26.30;16.65;;;8.40;95.40;;;;;;5045745;28;20025;-82
2021/10/23 03:51:11;;;;;;;24.70;15.50;;;8.40;95.20;;;;;;5010048;27;20027;-82
2021/10/23 03:53:37;;;;;;;26.45;15.98;;;8.40;95.20;;;;;;5003915;28;20037;-82
2021/10/23 03:56:02;;;;;;;24.83;16.65;;;8.40;95.10;;;;;;5022982;27;20034;-82
2021/10/23 03:58:28;;;;;;;25.02;17.15;;;8.40;95.10;;;;;;5069822;27;20079;-82
2021/10/23 04:00:54;;;;;;;26.63;17.20;;;8.40;95.20;;;;;;4998947;28;20058;-82
2021/10/23 04:03:19;;;;;;;24.40;15.85;;;8.50;95.20;;;;;;5054708;27;20494;-82
2021/10/23 04:05:45;;;;;;;21.05;14.30;;;8.50;95.20;;;;;;5082468;27;20056;-82
2021/10/23 04:08:10;;;;;;;21.27;14.38;;;8.50;95.30;;;;;;5007105;28;20431;-82
2021/10/23 04:10:36;;;;;;;23.92;15.25;;;8.50;95.20;;;;;;5028208;28;20025;-82
2021/10/23 04:13:02;;;;;;;23.42;16.33;;;8.60;95.30;;;;;;5053050;27;20026;-82
2021/10/23 04:15:29;;;;;;;34.70;18.13;;;8.60;95.30;;;;;;5016807;28;20060;-82
2021/10/23 04:17:54;;;;;;;28.38;17.50;;;8.60;95.30;;;;;;5032899;27;20044;-82
2021/10/23 04:20:20;;;;;;;24.17;15.70;;;8.60;95.20;;;;;;5061655;27;20041;-82
2021/10/23 04:22:46;;;;;;;23.85;16.30;;;8.60;95.20;;;;;;5048546;27;20033;-82
2021/10/23 04:25:11;;;;;;;28.92;17.58;;;8.60;95.20;;;;;;5034534;27;20414;-81
2021/10/23 04:27:37;;;;;;;32.08;17.13;;;8.50;95.20;;;;;;5039832;27;20654;-82
2021/10/23 04:30:04;;;;;;;33.40;18.98;;;8.50;95.20;;;;;;5041031;27;20033;-82
2021/10/23 04:32:30;;;;;;;25.48;17.13;;;8.50;95.30;;;;;;5025559;27;20027;-82
2021/10/23 04:34:55;;;;;;;31.40;18.08;;;8.50;95.30;;;;;;5028077;28;20144;-82
2021/10/23 04:37:21;;;;;;;25.25;16.52;;;8.50;95.30;;;;;;5016730;28;20025;-83
2021/10/23 04:39:46;;;;;;;28.42;17.10;;;8.50;95.30;;;;;;5042380;28;20068;-82
2021/10/23 04:42:12;;;;;;;25.20;15.25;;;8.50;95.30;;;;;;5061469;27;20030;-82
2021/10/23 04:44:38;;;;;;;29.60;17.45;;;8.40;95.30;;;;;;5094323;28;20066;-82
2021/10/23 04:47:03;;;;;;;27.70;17.67;;;8.40;95.20;;;;;;5086813;28;20417;-82
2021/10/23 04:49:29;;;;;;;28.63;16.50;;;8.40;95.20;;;;;;5086866;28;20032;-82
2021/10/23 04:51:55;;;;;;;31.63;16.98;;;8.30;95.20;;;;;;5091228;28;20508;-82
2021/10/23 04:54:21;;;;;;;25.40;16.75;;;8.30;95.20;;;;;;5090777;28;20093;-82
2021/10/23 04:56:46;;;;;;;23.13;16.20;;;8.20;95.10;;;;;;5078812;28;20038;-82
2021/10/23 04:59:12;;;;;;;28.98;17.45;;;8.20;95.10;;;;;;5076507;28;20032;-82
2021/10/23 05:01:38;;;;;;;25.17;16.95;;;8.20;95.10;;;;;;5092614;28;20044;-82
2021/10/23 05:04:03;;;;;;;24.95;17.63;;;8.20;95.10;;;;;;5092570;28;20024;-81
2021/10/23 05:06:29;;;;;;;26.83;15.95;;;8.10;95.10;;;;;;5091878;28;20162;-81
2021/10/23 05:08:55;;;;;;;32.15;19.27;;;8.10;95.20;;;;;;5094026;28;20077;-82
2021/10/23 05:11:20;;;;;;;34.35;18.63;;;8.10;95.10;;;;;;5092746;28;20483;-82
2021/10/23 05:13:46;;;;;;;27.67;18.05;;;8.10;95.20;;;;;;5082942;28;20051;-82
2021/10/23 05:16:11;;;;;;;27.20;15.88;;;8.20;95.20;;;;;;5095832;28;20393;-82
2021/10/23 05:18:37;;;;;;;36.50;19.08;;;8.20;95.20;;;;;;5099864;28;20066;-81
2021/10/23 05:21:03;;;;;;;28.85;18.10;;;8.20;95.20;;;;;;5077601;28;20024;-81
2021/10/23 05:23:28;;;;;;;23.42;15.80;;;8.20;95.20;;;;;;5091523;28;20116;-82
2021/10/23 05:25:57;;;;;;;26.70;17.13;;;8.20;95.20;;;;;;5084714;28;20032;-81
2021/10/23 05:28:24;;;;;;;34.92;19.92;;;8.30;95.30;;;;;;5086810;28;20073;-76
2021/10/23 05:30:49;;;;;;;33.00;19.45;;;8.30;95.20;;;;;;5097020;28;20031;-76
2021/10/23 05:33:15;;;;;;;29.65;17.67;;;8.30;95.30;;;;;;5084987;28;20095;-76
2021/10/23 05:35:40;;;;;;;29.73;18.90;;;8.40;95.30;;;;;;5090912;28;20057;-77
2021/10/23 05:38:06;;;;;;;37.85;21.10;;;8.40;95.30;;;;;;5079264;28;20472;-76
2021/10/23 05:40:32;;;;;;;35.08;19.35;;;8.40;95.30;;;;;;5085599;28;20024;-76
2021/10/23 05:42:57;;;;;;;32.22;20.23;;;8.40;95.30;;;;;;5077014;27;20042;-76
2021/10/23 05:45:23;;;;;;;32.47;21.33;;;8.40;95.30;;;;;;5038984;27;20139;-76
2021/10/23 05:47:49;;;;;;;29.10;18.60;;;8.50;95.40;;;;;;5029293;27;20026;-77
2021/10/23 05:50:15;;;;;;;31.27;20.17;;;8.50;95.60;;;;;;5035397;27;20036;-76
2021/10/23 05:52:40;;;;;;;36.78;22.10;;;8.50;95.40;;;;;;5033008;27;20550;-76
2021/10/23 05:55:06;;;;;;;40.47;22.50;;;8.50;95.40;;;;;;5030151;28;20029;-76
2021/10/23 05:57:32;;;;;;;35.22;21.33;;;8.60;95.40;;;;;;5011932;28;20489;-76
2021/10/23 06:00:04;;;;;;;35.00;21.85;;;8.60;95.50;;;;;;5031979;28;20032;-76
2021/10/23 06:02:31;;;;;;;37.70;23.15;;;8.60;95.50;;;;;;5051092;27;20030;-76
2021/10/23 06:05:01;;;;;;;40.67;22.73;;;8.60;95.50;;;;;;5045043;28;20078;-76
2021/10/23 06:07:31;;;;;;;35.35;22.83;;;8.70;95.50;;;;;;5030280;28;20037;-76
2021/10/23 06:09:58;;;;;;;39.42;22.33;;;8.70;95.50;;;;;;5012273;28;20557;-75
2021/10/23 06:12:25;;;;;;;37.88;22.23;;;8.70;95.50;;;;;;5096226;28;20034;-76
2021/10/23 06:14:52;;;;;;;38.80;24.35;;;8.70;95.50;;;;;;5030004;28;20032;-76
2021/10/23 06:17:18;;;;;;;45.42;25.30;;;8.70;95.50;;;;;;5029990;28;20047;-76
2021/10/23 06:19:43;;;;;;;42.13;22.05;;;8.70;95.60;;;;;;5029761;28;20033;-76
2021/10/23 06:22:09;;;;;;;34.25;21.63;;;8.70;95.60;;;;;;5029519;28;20029;-76
2021/10/23 06:24:35;;;;;;;33.33;20.58;;;8.70;95.60;;;;;;5098289;28;20033;-76
2021/10/23 06:27:01;;;;;;;42.42;23.20;;;8.70;95.60;;;;;;5029796;28;20070;-76
2021/10/23 06:29:28;;;;;;;36.30;19.38;;;8.70;95.70;;;;;;5029486;28;20504;-76
2021/10/23 06:31:54;;;;;;;41.95;23.33;;;8.70;95.70;;;;;;5029699;28;20486;-76
2021/10/23 06:34:20;;;;;;;49.80;25.95;;;8.70;95.70;;;;;;5029735;28;20037;-76
2021/10/23 06:36:45;;;;;;;43.00;25.75;;;8.70;95.70;;;;;;5098194;28;20037;-76
2021/10/23 06:39:11;;;;;;;39.95;22.10;;;8.70;95.70;;;;;;5029330;28;20524;-76
2021/10/23 06:41:37;;;;;;;40.80;23.65;;;8.70;95.80;;;;;;5097862;28;20037;-76
2021/10/23 06:44:06;;;;;;;43.85;24.55;;;8.70;95.80;;;;;;5029369;28;20038;-75
2021/10/23 06:46:32;;;;;;;33.80;23.25;;;8.70;95.80;;;;;;5029686;28;20021;-76
2021/10/23 06:48:57;;;;;;;42.00;23.00;;;8.80;95.80;;;;;;5029586;28;20047;-76
2021/10/23 06:51:23;;;;;;;36.00;21.73;;;8.80;95.80;;;;;;5029199;28;20026;-76
2021/10/23 06:53:52;;;;;;;38.58;22.60;;;8.80;95.90;;;;;;5029266;28;20136;-76
2021/10/23 06:56:18;;;;;;;42.53;24.23;;;8.80;95.80;;;;;;5095922;28;20021;-76
2021/10/23 06:58:43;;;;;;;62.33;28.70;;;8.90;95.90;;;;;;5097603;28;20482;-76
2021/10/23 07:01:09;;;;;;;42.60;23.50;;;8.90;95.90;;;;;;5028750;28;20041;-76
2021/10/23 07:03:34;;;;;;;34.65;21.98;;;9.00;95.90;;;;;;5097367;28;20105;-76
2021/10/23 07:06:00;;;;;;;42.28;23.70;;;9.00;95.90;;;;;;5097659;28;20038;-76
2021/10/23 07:08:26;;;;;;;40.85;25.33;;;9.00;95.90;;;;;;5097395;28;20504;-76
2021/10/23 07:10:51;;;;;;;38.60;23.60;;;9.10;95.90;;;;;;5096909;28;20057;-76
2021/10/23 07:13:17;;;;;;;46.30;25.63;;;9.10;95.90;;;;;;5028756;28;20034;-76
2021/10/23 07:15:43;;;;;;;37.35;21.90;;;9.20;95.90;;;;;;5097040;28;20041;-76
2021/10/23 07:18:09;;;;;;;43.05;23.65;;;9.20;96.20;;;;;;5029037;28;20021;-76
2021/10/23 07:20:36;;;;;;;35.63;23.00;;;9.30;95.90;;;;;;5028697;28;20063;-76
2021/10/23 07:23:02;;;;;;;42.03;24.45;;;9.30;95.90;;;;;;5096459;28;20045;-76
2021/10/23 07:25:28;;;;;;;38.85;24.45;;;9.40;95.90;;;;;;5096734;28;20116;-76
2021/10/23 07:27:53;;;;;;;40.88;24.75;;;9.40;95.90;;;;;;5028574;28;20561;-76
2021/10/23 07:30:19;;;;;;;41.63;24.85;;;9.50;95.90;;;;;;5096834;28;20034;-76
2021/10/23 07:32:45;;;;;;;48.53;26.15;;;9.50;95.80;;;;;;5096546;28;20065;-76
2021/10/23 07:35:11;;;;;;;33.60;22.20;;;9.60;95.90;;;;;;5028299;28;20098;-76
2021/10/23 07:37:37;;;;;;;49.60;27.05;;;9.60;95.90;;;;;;5028361;28;20029;-76
2021/10/23 07:40:05;;;;;;;46.55;25.10;;;9.70;95.90;;;;;;5028246;28;20116;-76
2021/10/23 07:42:31;;;;;;;43.10;27.15;;;9.70;95.80;;;;;;5096016;28;20494;-76
2021/10/23 07:44:58;;;;;;;42.28;24.45;;;9.70;95.80;;;;;;5096040;28;20054;-76
2021/10/23 07:47:23;;;;;;;47.88;28.08;;;9.80;95.80;;;;;;5028207;28;20136;-76
2021/10/23 07:49:49;;;;;;;61.35;28.38;;;9.80;95.80;;;;;;5027565;28;20167;-76
2021/10/23 07:52:16;;;;;;;46.45;26.08;;;9.90;95.80;;;;;;5028081;28;20082;-76
2021/10/23 07:54:42;;;;;;;45.72;26.23;;;9.90;95.80;;;;;;5095525;28;20501;-76
2021/10/23 07:57:08;;;;;;;44.30;24.98;;;10.00;95.80;;;;;;5095702;28;20041;-76
2021/10/23 07:59:34;;;;;;;40.63;24.98;;;10.00;95.80;;;;;;5027127;28;20025;-76
2021/10/23 08:02:04;;;;;;;42.85;26.90;;;10.10;95.80;;;;;;5028068;28;20113;-76
2021/10/23 08:04:31;;;;;;;48.60;26.75;;;10.10;95.80;;;;;;5096186;28;20540;-76
2021/10/23 08:06:59;;;;;;;43.78;27.25;;;10.10;95.80;;;;;;5027831;28;20065;-76
2021/10/23 08:09:26;;;;;;;40.80;26.38;;;10.10;95.80;;;;;;5027656;28;20033;-76
2021/10/23 08:11:52;;;;;;;51.92;29.58;;;10.10;95.80;;;;;;5028053;28;20544;-76
2021/10/23 08:14:19;;;;;;;51.13;30.85;;;10.20;95.80;;;;;;5027936;28;20128;-76
2021/10/23 08:16:45;;;;;;;49.72;29.30;;;10.20;95.80;;;;;;5010331;28;20037;-76
2021/10/23 08:19:11;;;;;;;53.88;31.38;;;10.20;95.70;;;;;;5027712;28;20026;-76
2021/10/23 08:21:38;;;;;;;49.20;30.73;;;10.30;95.70;;;;;;5042996;28;20057;-76
2021/10/23 08:24:05;;;;;;;41.65;27.25;;;10.30;95.70;;;;;;5027108;28;20029;-76
2021/10/23 08:26:30;;;;;;;46.70;30.15;;;10.40;95.70;;;;;;5010193;28;20029;-76
2021/10/23 08:28:56;;;;;;;52.53;31.45;;;10.40;95.70;;;;;;5027734;28;20444;-76
2021/10/23 08:31:23;;;;;;;52.15;31.30;;;10.50;95.70;;;;;;5042970;28;20482;-76
2021/10/23 08:33:49;;;;;;;51.83;29.80;;;10.50;95.70;;;;;;5016093;28;20089;-76
2021/10/23 08:36:15;;;;;;;46.60;30.23;;;10.60;95.70;;;;;;5008098;28;20077;-76
2021/10/23 08:38:42;;;;;;;42.83;27.40;;;10.70;95.80;;;;;;5008206;28;20109;-75
2021/10/23 08:41:10;;;;;;;51.78;28.13;;;10.80;95.60;;;;;;4990508;28;20498;-75
2021/10/23 08:43:36;;;;;;;49.58;30.98;;;10.80;95.50;;;;;;4989756;28;20498;-75
2021/10/23 08:46:05;;;;;;;43.60;27.98;;;10.90;95.50;;;;;;5007704;28;20033;-75
2021/10/23 08:48:31;;;;;;;44.22;27.05;;;11.00;95.40;;;;;;5022811;28;20037;-75
2021/10/23 08:51:00;;;;;;;41.75;28.15;;;11.10;95.40;;;;;;5042863;28;20065;-76
2021/10/23 08:53:28;;;;;;;38.78;24.52;;;11.20;95.30;;;;;;5027506;28;20052;-76
2021/10/23 08:55:54;;;;;;;44.20;26.05;;;11.10;95.20;;;;;;5027707;28;20057;-76
2021/10/23 08:58:20;;;;;;;34.72;24.17;;;11.20;95.20;;;;;;5009626;28;20029;-75
2021/10/23 09:00:46;;;;;;;37.35;24.77;;;11.20;95.20;;;;;;5027276;28;20667;-75
2021/10/23 09:03:12;;;;;;;40.70;26.50;;;11.20;95.10;;;;;;5042485;28;20079;-75
2021/10/23 09:05:38;;;;;;;36.47;23.08;;;11.20;95.00;;;;;;5026161;28;20056;-76
2021/10/23 09:08:14;;;;;;;32.33;22.73;;;11.30;95.00;;;;;;5026139;28;20041;-75
2021/10/23 09:10:45;;;;;;;39.22;23.73;;;11.30;95.00;;;;;;5011502;28;20029;-76
2021/10/23 09:13:11;;;;;;;36.90;25.05;;;11.30;95.00;;;;;;5007364;28;20034;-76
2021/10/23 09:15:39;;;;;;;36.17;24.55;;;11.30;95.30;;;;;;5011753;28;20044;-75
2021/10/23 09:18:06;;;;;;;47.72;26.90;;;11.30;95.10;;;;;;5026835;28;20062;-75
2021/10/23 09:20:39;;;;;;;36.20;23.67;;;11.30;95.10;;;;;;5009326;28;20782;-75
2021/10/23 09:23:19;;;;;;;41.45;24.00;;;11.30;95.20;;;;;;5042295;28;20038;-75
2021/10/23 09:25:46;;;;;;;37.67;23.63;;;11.30;95.20;;;;;;5027121;28;20075;-75
2021/10/23 09:28:25;;;;;;;30.30;22.20;;;11.40;95.20;;;;;;5027250;28;20024;-75
2021/10/23 09:30:51;;;;;;;47.47;27.67;;;11.40;95.30;;;;;;4996273;28;20037;-75
2021/10/23 09:33:19;;;;;;;38.63;24.25;;;11.50;95.20;;;;;;5007404;28;20034;-75
2021/10/23 09:35:49;;;;;;;38.60;24.77;;;11.50;95.20;;;;;;5009182;28;20454;-75
2021/10/23 09:38:19;;;;;;;38.97;25.35;;;11.60;95.20;;;;;;5009301;28;20041;-75
2021/10/23 09:40:46;;;;;;;36.08;23.00;;;11.60;95.20;;;;;;4993235;28;20038;-75
2021/10/23 09:43:20;;;;;;;38.25;27.85;;;11.70;95.20;;;;;;5010528;28;20062;-75
2021/10/23 09:45:58;;;;;;;38.05;25.10;;;11.80;95.20;;;;;;5029189;28;20021;-75
2021/10/23 09:48:38;;;;;;;34.47;24.15;;;11.80;94.70;;;;;;5030309;28;20018;-75
2021/10/23 09:51:11;;;;;;;36.47;23.30;;;11.90;94.60;;;;;;5030322;28;20041;-75
2021/10/23 09:53:37;;;;;;;37.50;24.80;;;11.90;94.50;;;;;;5030397;28;20077;-75
2021/10/23 09:56:07;;;;;;;40.63;22.70;;;11.90;94.60;;;;;;5030241;28;20057;-76
2021/10/23 09:58:32;;;;;;;34.08;22.48;;;11.90;94.30;;;;;;5029922;28;20029;-75
2021/10/23 10:00:58;;;;;;;36.22;21.90;;;12.00;94.30;;;;;;5030257;28;20560;-76
2021/10/23 10:03:25;;;;;;;29.15;19.23;;;11.90;94.20;;;;;;5030217;28;20036;-75
2021/10/23 10:05:54;;;;;;;30.10;19.13;;;12.00;94.20;;;;;;5030008;28;20162;-76
2021/10/23 10:08:20;;;;;;;30.77;18.75;;;11.90;94.10;;;;;;5028420;28;20105;-75
2021/10/23 10:10:47;;;;;;;31.23;19.05;;;12.00;94.10;;;;;;5030003;28;20109;-76
2021/10/23 10:13:16;;;;;;;32.00;19.90;;;12.00;94.10;;;;;;5037385;28;20042;-75
2021/10/23 10:15:44;;;;;;;29.95;18.48;;;12.00;94.10;;;;;;5010358;28;20025;-75
2021/10/23 10:18:10;;;;;;;31.75;18.52;;;12.00;94.10;;;;;;5010144;28;20479;-76
2021/10/23 10:20:37;;;;;;;24.00;17.30;;;12.00;94.10;;;;;;4992474;28;20041;-76
2021/10/23 10:23:06;;;;;;;26.75;17.52;;;12.00;94.00;;;;;;5009943;28;20069;-76
2021/10/23 10:25:32;;;;;;;24.75;16.27;;;12.20;94.10;;;;;;5010235;28;20502;-76
2021/10/23 10:28:13;;;;;;;26.58;15.02;;;12.20;94.00;;;;;;5016650;28;20059;-76
2021/10/23 10:30:42;;;;;;;21.85;14.60;;;12.30;93.80;;;;;;5029438;28;20017;-76
2021/10/23 10:33:42;;;;;;;23.65;14.80;;;12.30;93.70;;;;;;5029449;28;20025;-76
2021/10/23 10:44:12;;;;;;;23.27;13.63;;;12.40;93.20;;;;;;5050336;28;20413;-76
2021/10/23 10:47:05;;;;;;;22.95;14.32;;;12.50;93.20;;;;;;5009217;28;20534;-76
2021/10/23 10:49:53;;;;;;;24.85;13.90;;;12.60;93.20;;;;;;5019911;28;20029;-76
2021/10/23 10:52:40;;;;;;;18.43;13.03;;;12.60;93.00;;;;;;5029063;28;20030;-76
2021/10/23 10:55:15;;;;;;;22.77;13.65;;;12.70;93.00;;;;;;5029062;28;20030;-76
2021/10/23 10:58:05;;;;;;;23.25;12.85;;;12.70;93.00;;;;;;5028331;28;20022;-76
2021/10/23 11:00:46;;;;;;;20.60;12.98;;;12.80;92.90;;;;;;5044071;27;20037;-76
2021/10/23 11:03:32;;;;;;;21.02;12.20;;;12.80;92.90;;;;;;5028787;28;20526;-76
2021/10/23 11:06:36;;;;;;;24.85;14.23;;;12.80;92.80;;;;;;5022315;28;20052;-76
2021/10/23 11:09:10;;;;;;;23.50;13.65;;;12.90;92.60;;;;;;5043373;28;20734;-76
2021/10/23 11:11:49;;;;;;;24.73;13.25;;;12.90;92.60;;;;;;5028917;28;20028;-76
2021/10/23 11:14:23;;;;;;;29.85;15.75;;;12.90;92.70;;;;;;5029122;28;20053;-76
2021/10/23 11:16:58;;;;;;;26.63;14.40;;;13.00;92.60;;;;;;5028852;28;20022;-76
2021/10/23 11:19:25;;;;;;;25.75;14.95;;;13.00;92.50;;;;;;5044418;28;20074;-76
2021/10/23 11:21:51;;;;;;;24.92;15.75;;;13.00;92.40;;;;;;5044374;28;20037;-76
2021/10/23 11:24:17;;;;;;;23.67;13.25;;;13.00;92.50;;;;;;5017911;28;20061;-76
2021/10/23 11:26:46;;;;;;;28.33;14.52;;;13.10;92.50;;;;;;5024576;28;20085;-76
2021/10/23 11:29:20;;;;;;;22.42;14.18;;;13.10;92.20;;;;;;5028854;28;20033;-76
2021/10/23 11:31:46;;;;;;;26.40;14.30;;;13.10;92.00;;;;;;5028722;28;20021;-76
2021/10/23 11:34:39;;;;;;;28.05;14.30;;;13.20;91.80;;;;;;5010975;28;20627;-76
2021/10/23 11:37:12;;;;;;;23.08;12.57;;;13.20;91.60;;;;;;5029160;28;20102;-76
2021/10/23 11:39:42;;;;;;;23.35;12.63;;;13.10;91.60;;;;;;5028498;28;20109;-76
2021/10/23 11:42:17;;;;;;;20.92;11.98;;;13.20;91.80;;;;;;5011036;28;20167;-76
2021/10/23 11:44:45;;;;;;;22.02;11.75;;;13.10;91.70;;;;;;5028546;28;20057;-76
2021/10/23 11:47:16;;;;;;;20.90;11.60;;;13.20;91.70;;;;;;5028556;28;20046;-76
2021/10/23 11:49:42;;;;;;;21.85;12.20;;;13.20;91.70;;;;;;5028447;28;20076;-76
2021/10/23 11:52:09;;;;;;;19.88;10.80;;;13.20;91.70;;;;;;5010925;28;20472;-76
2021/10/23 11:54:45;;;;;;;20.50;10.75;;;13.20;91.60;;;;;;5028797;28;20033;-76
2021/10/23 11:57:28;;;;;;;19.95;10.77;;;13.20;91.50;;;;;;5028619;28;20029;-76
2021/10/23 11:59:54;;;;;;;20.65;10.18;;;13.20;91.50;;;;;;5027444;28;20030;-76
2021/10/23 12:02:21;;;;;;;17.48;9.40;;;13.30;91.50;;;;;;5010610;28;20040;-76
2021/10/23 12:04:47;;;;;;;14.52;8.55;;;13.30;91.40;;;;;;5009943;28;20045;-75
2021/10/23 12:07:33;;;;;;;15.07;7.93;;;13.30;91.20;;;;;;5010640;28;20652;-76
2021/10/23 12:10:08;;;;;;;17.52;8.68;;;13.30;91.30;;;;;;5028236;28;20030;-76
2021/10/23 12:12:33;;;;;;;12.98;7.57;;;13.40;91.50;;;;;;4994036;28;20029;-76
2021/10/23 12:15:15;;;;;;;16.85;7.82;;;13.40;91.50;;;;;;5028430;28;20041;-76
2021/10/23 12:17:40;;;;;;;20.25;8.73;;;13.40;91.30;;;;;;5027998;28;20517;-76
2021/10/23 12:20:24;;;;;;;15.20;7.82;;;13.40;91.10;;;;;;5028174;28;20040;-76
2021/10/23 12:22:50;;;;;;;15.93;7.20;;;13.30;91.10;;;;;;5009981;28;20083;-76
2021/10/23 12:25:15;;;;;;;16.55;7.00;;;13.30;91.20;;;;;;5027912;28;20037;-76
2021/10/23 12:27:42;;;;;;;14.18;6.85;;;13.30;91.30;;;;;;5027672;28;20142;-76
2021/10/23 12:30:13;;;;;;;11.15;6.75;;;13.40;91.30;;;;;;4993916;28;20034;-76
2021/10/23 12:32:47;;;;;;;12.60;6.10;;;13.40;91.20;;;;;;5027964;28;20021;-76
2021/10/23 12:35:21;;;;;;;13.18;7.10;;;13.50;91.40;;;;;;5010278;28;20037;-76
2021/10/23 12:37:56;;;;;;;17.73;7.38;;;13.50;90.80;;;;;;5027845;28;20061;-76
2021/10/23 12:40:25;;;;;;;19.50;6.55;;;13.60;90.80;;;;;;5028149;28;20074;-76
2021/10/23 12:42:56;;;;;;;11.48;5.93;;;13.60;90.80;;;;;;5027533;28;20045;-76
2021/10/23 12:45:24;;;;;;;12.35;6.85;;;13.60;90.80;;;;;;5027803;28;20022;-76